sensor_id;sensor_type;location;lat;lon;timestamp;pressure;altitude;pressure_sealevel;temperature;humidity
11712;BME280;5912;51.034;6.984;2023-04-23T00:00:07;56444.47;;;-142.13;73.13
11712;BME280;5912;51.034;6.984;2023-04-23T00:02:36;56430.44;;;-142.13;73.10
11712;BME280;5912;51.034;6.984;2023-04-23T00:05:04;56438.47;;;-142.13;73.27
11712;BME280;5912;51.034;6.984;2023-04-23T00:07:31;56462.50;;;-142.13;73.25
11712;BME280;5912;51.034;6.984;2023-04-23T00:09:58;56468.50;;;-142.13;73.17
11712;BME280;5912;51.034;6.984;2023-04-23T00:12:25;56434.44;;;-142.13;73.20
11712;BME280;5912;51.034;6.984;2023-04-23T00:14:50;56458.50;;;-142.13;73.31
11712;BME280;5912;51.034;6.984;2023-04-23T00:17:16;56440.47;;;-142.13;73.27
11712;BME280;5912;51.034;6.984;2023-04-23T00:19:41;56444.47;;;-142.13;73.41
11712;BME280;5912;51.034;6.984;2023-04-23T00:22:07;56456.50;;;-142.13;73.22
11712;BME280;5912;51.034;6.984;2023-04-23T00:24:32;56492.53;;;-142.13;73.20
11712;BME280;5912;51.034;6.984;2023-04-23T00:27:00;56420.44;;;-142.13;73.27
11712;BME280;5912;51.034;6.984;2023-04-23T00:29:25;56468.50;;;-142.13;73.24
11712;BME280;5912;51.034;6.984;2023-04-23T00:31:51;56436.47;;;-142.13;73.22
11712;BME280;5912;51.034;6.984;2023-04-23T00:34:16;56408.41;;;-142.13;73.19
11712;BME280;5912;51.034;6.984;2023-04-23T00:36:41;56472.50;;;-142.13;73.39
11712;BME280;5912;51.034;6.984;2023-04-23T00:39:06;56452.47;;;-142.13;73.30
11712;BME280;5912;51.034;6.984;2023-04-23T00:41:33;56456.50;;;-142.13;73.48
11712;BME280;5912;51.034;6.984;2023-04-23T00:43:58;56446.47;;;-142.13;73.53
11712;BME280;5912;51.034;6.984;2023-04-23T00:46:24;56436.47;;;-142.13;73.45
11712;BME280;5912;51.034;6.984;2023-04-23T00:48:51;56468.50;;;-142.13;73.49
11712;BME280;5912;51.034;6.984;2023-04-23T00:51:16;56462.50;;;-142.13;73.56
11712;BME280;5912;51.034;6.984;2023-04-23T00:53:42;56462.50;;;-142.13;73.55
11712;BME280;5912;51.034;6.984;2023-04-23T00:56:07;56482.53;;;-142.13;73.65
11712;BME280;5912;51.034;6.984;2023-04-23T00:58:33;56456.50;;;-142.13;73.44
11712;BME280;5912;51.034;6.984;2023-04-23T01:00:59;56480.53;;;-142.13;73.56
11712;BME280;5912;51.034;6.984;2023-04-23T01:03:26;56488.53;;;-142.13;73.45
11712;BME280;5912;51.034;6.984;2023-04-23T01:05:51;56454.47;;;-142.13;73.52
11712;BME280;5912;51.034;6.984;2023-04-23T01:08:17;56450.47;;;-142.13;73.67
11712;BME280;5912;51.034;6.984;2023-04-23T01:10:43;56468.50;;;-142.13;73.54
11712;BME280;5912;51.034;6.984;2023-04-23T01:13:11;56440.47;;;-142.13;73.73
11712;BME280;5912;51.034;6.984;2023-04-23T01:15:37;56458.50;;;-142.13;73.65
11712;BME280;5912;51.034;6.984;2023-04-23T01:18:03;56492.53;;;-142.13;73.51
11712;BME280;5912;51.034;6.984;2023-04-23T01:20:28;56448.47;;;-142.13;73.71
11712;BME280;5912;51.034;6.984;2023-04-23T01:22:54;56510.56;;;-142.13;73.74
11712;BME280;5912;51.034;6.984;2023-04-23T01:25:19;56460.50;;;-142.13;74.01
11712;BME280;5912;51.034;6.984;2023-04-23T01:27:45;56444.47;;;-142.13;74.36
11712;BME280;5912;51.034;6.984;2023-04-23T01:30:11;56460.50;;;-142.13;74.19
11712;BME280;5912;51.034;6.984;2023-04-23T01:32:37;56488.53;;;-142.13;74.34
11712;BME280;5912;51.034;6.984;2023-04-23T01:35:03;56462.50;;;-142.13;74.60
11712;BME280;5912;51.034;6.984;2023-04-23T01:37:29;56460.50;;;-142.13;74.47
11712;BME280;5912;51.034;6.984;2023-04-23T01:39:55;56466.50;;;-142.13;74.80
11712;BME280;5912;51.034;6.984;2023-04-23T01:42:22;56460.50;;;-142.13;75.01
11712;BME280;5912;51.034;6.984;2023-04-23T01:44:47;56448.47;;;-142.13;74.86
11712;BME280;5912;51.034;6.984;2023-04-23T01:47:13;56446.47;;;-142.13;75.12
11712;BME280;5912;51.034;6.984;2023-04-23T01:49:38;56458.50;;;-142.13;75.20
11712;BME280;5912;51.034;6.984;2023-04-23T01:52:03;56466.50;;;-142.13;75.32
11712;BME280;5912;51.034;6.984;2023-04-23T01:54:29;56470.50;;;-142.13;75.25
11712;BME280;5912;51.034;6.984;2023-04-23T01:56:54;56472.50;;;-142.13;75.04
11712;BME280;5912;51.034;6.984;2023-04-23T01:59:23;56464.50;;;-142.13;75.33
11712;BME280;5912;51.034;6.984;2023-04-23T02:01:49;56468.50;;;-142.13;75.29
11712;BME280;5912;51.034;6.984;2023-04-23T02:04:15;56474.53;;;-142.13;75.18
11712;BME280;5912;51.034;6.984;2023-04-23T02:06:42;56472.50;;;-142.13;75.34
11712;BME280;5912;51.034;6.984;2023-04-23T02:09:08;56468.50;;;-142.13;75.41
11712;BME280;5912;51.034;6.984;2023-04-23T02:11:34;56478.53;;;-142.13;75.48
11712;BME280;5912;51.034;6.984;2023-04-23T02:14:00;56472.50;;;-142.13;75.57
11712;BME280;5912;51.034;6.984;2023-04-23T02:16:26;56452.47;;;-142.13;75.46
11712;BME280;5912;51.034;6.984;2023-04-23T02:18:54;56460.50;;;-142.13;75.27
11712;BME280;5912;51.034;6.984;2023-04-23T02:21:21;56530.59;;;-142.13;75.44
11712;BME280;5912;51.034;6.984;2023-04-23T02:23:46;56480.53;;;-142.13;75.17
11712;BME280;5912;51.034;6.984;2023-04-23T02:26:12;56508.56;;;-142.13;75.34
11712;BME280;5912;51.034;6.984;2023-04-23T02:28:37;56474.53;;;-142.13;75.57
11712;BME280;5912;51.034;6.984;2023-04-23T02:31:03;56472.50;;;-142.13;75.48
11712;BME280;5912;51.034;6.984;2023-04-23T02:33:28;56496.56;;;-142.13;75.55
11712;BME280;5912;51.034;6.984;2023-04-23T02:35:53;56460.50;;;-142.13;75.66
11712;BME280;5912;51.034;6.984;2023-04-23T02:38:19;56460.50;;;-142.13;75.77
11712;BME280;5912;51.034;6.984;2023-04-23T02:40:44;56466.50;;;-142.13;75.99
11712;BME280;5912;51.034;6.984;2023-04-23T02:43:09;56484.53;;;-142.13;76.13
11712;BME280;5912;51.034;6.984;2023-04-23T02:45:35;56470.50;;;-142.13;76.67
11712;BME280;5912;51.034;6.984;2023-04-23T02:48:00;56496.56;;;-142.13;76.47
11712;BME280;5912;51.034;6.984;2023-04-23T02:50:25;56472.50;;;-142.13;76.30
11712;BME280;5912;51.034;6.984;2023-04-23T02:52:51;56494.56;;;-142.13;76.47
11712;BME280;5912;51.034;6.984;2023-04-23T02:55:16;56500.56;;;-142.13;76.61
11712;BME280;5912;51.034;6.984;2023-04-23T02:57:41;56498.56;;;-142.13;76.72
11712;BME280;5912;51.034;6.984;2023-04-23T03:00:08;56504.56;;;-142.13;76.58
11712;BME280;5912;51.034;6.984;2023-04-23T03:02:33;56488.53;;;-142.13;76.95
11712;BME280;5912;51.034;6.984;2023-04-23T03:04:59;56492.53;;;-142.13;76.92
11712;BME280;5912;51.034;6.984;2023-04-23T03:07:25;56478.53;;;-142.13;76.81
11712;BME280;5912;51.034;6.984;2023-04-23T03:09:50;56486.53;;;-142.13;76.87
11712;BME280;5912;51.034;6.984;2023-04-23T03:12:15;56468.50;;;-142.13;76.56
11712;BME280;5912;51.034;6.984;2023-04-23T03:14:42;56466.50;;;-142.13;76.70
11712;BME280;5912;51.034;6.984;2023-04-23T03:17:08;56460.50;;;-142.13;76.74
11712;BME280;5912;51.034;6.984;2023-04-23T03:19:34;56494.56;;;-142.13;76.45
11712;BME280;5912;51.034;6.984;2023-04-23T03:21:59;56480.53;;;-142.13;76.34
11712;BME280;5912;51.034;6.984;2023-04-23T03:24:27;56474.53;;;-142.13;76.34
11712;BME280;5912;51.034;6.984;2023-04-23T03:26:56;56500.56;;;-142.13;76.47
11712;BME280;5912;51.034;6.984;2023-04-23T03:29:22;56466.50;;;-142.13;76.69
11712;BME280;5912;51.034;6.984;2023-04-23T03:31:48;56524.59;;;-142.13;76.39
11712;BME280;5912;51.034;6.984;2023-04-23T03:34:13;56492.53;;;-142.13;76.76
11712;BME280;5912;51.034;6.984;2023-04-23T03:36:39;56510.56;;;-142.13;76.50
11712;BME280;5912;51.034;6.984;2023-04-23T03:39:04;56502.56;;;-142.13;76.72
11712;BME280;5912;51.034;6.984;2023-04-23T03:41:29;56484.53;;;-142.13;76.85
11712;BME280;5912;51.034;6.984;2023-04-23T03:43:55;56482.53;;;-142.13;76.97
11712;BME280;5912;51.034;6.984;2023-04-23T03:46:20;56446.47;;;-142.13;77.04
11712;BME280;5912;51.034;6.984;2023-04-23T03:48:45;56474.53;;;-142.13;76.74
11712;BME280;5912;51.034;6.984;2023-04-23T03:51:11;56484.53;;;-142.13;76.67
11712;BME280;5912;51.034;6.984;2023-04-23T03:53:36;56490.53;;;-142.13;76.86
11712;BME280;5912;51.034;6.984;2023-04-23T03:56:01;56488.53;;;-142.13;77.08
11712;BME280;5912;51.034;6.984;2023-04-23T03:58:26;56456.50;;;-142.13;76.75
11712;BME280;5912;51.034;6.984;2023-04-23T04:00:52;56478.53;;;-142.13;76.92
11712;BME280;5912;51.034;6.984;2023-04-23T04:03:18;56454.47;;;-142.13;76.71
11712;BME280;5912;51.034;6.984;2023-04-23T04:05:43;56510.56;;;-142.13;76.83
11712;BME280;5912;51.034;6.984;2023-04-23T04:08:09;56482.53;;;-142.13;76.75
11712;BME280;5912;51.034;6.984;2023-04-23T04:10:35;56482.53;;;-142.13;76.57
11712;BME280;5912;51.034;6.984;2023-04-23T04:13:00;56718.91;;;-142.13;76.33
11712;BME280;5912;51.034;6.984;2023-04-23T04:15:26;56504.56;;;-142.13;76.82
11712;BME280;5912;51.034;6.984;2023-04-23T04:17:51;56492.53;;;-142.13;76.97
11712;BME280;5912;51.034;6.984;2023-04-23T04:20:16;56504.56;;;-142.13;76.90
11712;BME280;5912;51.034;6.984;2023-04-23T04:22:42;56496.56;;;-142.13;76.78
11712;BME280;5912;51.034;6.984;2023-04-23T04:25:07;56482.53;;;-142.13;76.90
11712;BME280;5912;51.034;6.984;2023-04-23T04:27:34;56452.47;;;-142.13;77.04
11712;BME280;5912;51.034;6.984;2023-04-23T04:30:00;56488.53;;;-142.13;76.85
11712;BME280;5912;51.034;6.984;2023-04-23T04:32:29;56482.53;;;-142.13;76.98
11712;BME280;5912;51.034;6.984;2023-04-23T04:34:55;56448.47;;;-142.13;76.76
11712;BME280;5912;51.034;6.984;2023-04-23T04:37:21;56458.50;;;-142.13;76.83
11712;BME280;5912;51.034;6.984;2023-04-23T04:39:46;56500.56;;;-142.13;77.11
11712;BME280;5912;51.034;6.984;2023-04-23T04:42:12;56498.56;;;-142.13;77.16
11712;BME280;5912;51.034;6.984;2023-04-23T04:44:37;56464.50;;;-142.13;76.91
11712;BME280;5912;51.034;6.984;2023-04-23T04:47:03;56456.50;;;-142.13;77.03
11712;BME280;5912;51.034;6.984;2023-04-23T04:49:28;56472.50;;;-142.13;76.59
11712;BME280;5912;51.034;6.984;2023-04-23T04:51:53;56484.53;;;-142.13;77.13
11712;BME280;5912;51.034;6.984;2023-04-23T04:54:19;56492.53;;;-142.13;76.76
11712;BME280;5912;51.034;6.984;2023-04-23T04:56:44;56488.53;;;-142.13;76.75
11712;BME280;5912;51.034;6.984;2023-04-23T04:59:10;56468.50;;;-142.13;76.63
11712;BME280;5912;51.034;6.984;2023-04-23T05:01:36;56470.50;;;-142.13;76.34
11712;BME280;5912;51.034;6.984;2023-04-23T05:04:02;56494.56;;;-142.13;75.96
11712;BME280;5912;51.034;6.984;2023-04-23T05:06:33;56450.47;;;-142.13;76.06
11712;BME280;5912;51.034;6.984;2023-04-23T05:08:58;56460.50;;;-142.13;76.00
11712;BME280;5912;51.034;6.984;2023-04-23T05:11:24;56444.47;;;-142.13;75.85
11712;BME280;5912;51.034;6.984;2023-04-23T05:13:50;56470.50;;;-142.13;75.74
11712;BME280;5912;51.034;6.984;2023-04-23T05:16:15;56468.50;;;-142.13;75.76
11712;BME280;5912;51.034;6.984;2023-04-23T05:18:40;56478.53;;;-142.13;75.79
11712;BME280;5912;51.034;6.984;2023-04-23T05:21:06;56444.47;;;-142.13;75.62
11712;BME280;5912;51.034;6.984;2023-04-23T05:23:33;56452.47;;;-142.13;75.53
11712;BME280;5912;51.034;6.984;2023-04-23T05:25:59;56448.47;;;-142.13;75.25
11712;BME280;5912;51.034;6.984;2023-04-23T05:28:24;56456.50;;;-142.13;75.48
11712;BME280;5912;51.034;6.984;2023-04-23T05:30:50;56452.47;;;-142.13;75.43
11712;BME280;5912;51.034;6.984;2023-04-23T05:33:15;56430.44;;;-142.13;75.22
11712;BME280;5912;51.034;6.984;2023-04-23T05:35:41;56472.50;;;-142.13;75.21
11712;BME280;5912;51.034;6.984;2023-04-23T05:38:07;56468.50;;;-142.13;74.95
11712;BME280;5912;51.034;6.984;2023-04-23T05:40:32;56432.44;;;-142.13;75.02
11712;BME280;5912;51.034;6.984;2023-04-23T05:42:58;56406.41;;;-142.13;74.87
11712;BME280;5912;51.034;6.984;2023-04-23T05:45:23;56452.47;;;-142.13;74.85
11712;BME280;5912;51.034;6.984;2023-04-23T05:47:49;56410.41;;;-142.13;74.48
11712;BME280;5912;51.034;6.984;2023-04-23T05:50:14;56430.44;;;-142.13;74.13
11712;BME280;5912;51.034;6.984;2023-04-23T05:52:39;56420.44;;;-142.13;74.19
11712;BME280;5912;51.034;6.984;2023-04-23T05:55:05;56432.44;;;-142.13;73.92
11712;BME280;5912;51.034;6.984;2023-04-23T05:57:31;56412.41;;;-142.13;73.51
11712;BME280;5912;51.034;6.984;2023-04-23T05:59:57;56450.47;;;-142.13;73.52
11712;BME280;5912;51.034;6.984;2023-04-23T06:02:22;56428.44;;;-142.13;73.06
11712;BME280;5912;51.034;6.984;2023-04-23T06:04:47;56448.47;;;-142.13;73.02
11712;BME280;5912;51.034;6.984;2023-04-23T06:07:13;56424.44;;;-142.13;73.02
11712;BME280;5912;51.034;6.984;2023-04-23T06:09:39;56400.41;;;-142.13;72.94
11712;BME280;5912;51.034;6.984;2023-04-23T06:12:05;56434.44;;;-142.13;72.82
11712;BME280;5912;51.034;6.984;2023-04-23T06:14:30;56452.47;;;-142.13;72.45
11712;BME280;5912;51.034;6.984;2023-04-23T06:16:55;56446.47;;;-142.13;72.21
11712;BME280;5912;51.034;6.984;2023-04-23T06:19:51;56408.41;;;-142.13;71.78
11712;BME280;5912;51.034;6.984;2023-04-23T06:22:17;56412.41;;;-142.13;71.75
11712;BME280;5912;51.034;6.984;2023-04-23T06:24:42;56416.44;;;-142.13;71.26
11712;BME280;5912;51.034;6.984;2023-04-23T06:27:07;56408.41;;;-142.13;71.50
11712;BME280;5912;51.034;6.984;2023-04-23T06:29:33;56396.41;;;-142.13;70.88
11712;BME280;5912;51.034;6.984;2023-04-23T06:32:00;56388.38;;;-142.13;70.48
11712;BME280;5912;51.034;6.984;2023-04-23T06:34:26;56396.41;;;-142.13;69.96
11712;BME280;5912;51.034;6.984;2023-04-23T06:36:51;56402.41;;;-142.13;69.85
11712;BME280;5912;51.034;6.984;2023-04-23T06:39:17;56374.34;;;-142.13;69.43
11712;BME280;5912;51.034;6.984;2023-04-23T06:41:42;56358.34;;;-142.13;68.88
11712;BME280;5912;51.034;6.984;2023-04-23T06:44:07;56364.34;;;-142.13;68.99
11712;BME280;5912;51.034;6.984;2023-04-23T06:46:33;56382.38;;;-142.13;69.02
11712;BME280;5912;51.034;6.984;2023-04-23T06:48:58;56382.38;;;-142.13;67.72
11712;BME280;5912;51.034;6.984;2023-04-23T06:51:26;56366.34;;;-142.13;67.01
11712;BME280;5912;51.034;6.984;2023-04-23T06:53:52;56378.38;;;-142.13;66.87
11712;BME280;5912;51.034;6.984;2023-04-23T06:56:17;56374.34;;;-142.13;66.92
11712;BME280;5912;51.034;6.984;2023-04-23T06:58:43;56364.34;;;-142.13;66.51
11712;BME280;5912;51.034;6.984;2023-04-23T07:01:08;56368.34;;;-142.13;67.01
11712;BME280;5912;51.034;6.984;2023-04-23T07:03:35;56364.34;;;-142.13;66.64
11712;BME280;5912;51.034;6.984;2023-04-23T07:06:01;56388.38;;;-142.13;66.51
11712;BME280;5912;51.034;6.984;2023-04-23T07:08:26;56390.38;;;-142.13;66.31
11712;BME280;5912;51.034;6.984;2023-04-23T07:10:51;56328.28;;;-142.13;65.62
11712;BME280;5912;51.034;6.984;2023-04-23T07:13:17;56296.22;;;-142.13;65.32
11712;BME280;5912;51.034;6.984;2023-04-23T07:15:42;56312.25;;;-142.13;64.38
11712;BME280;5912;51.034;6.984;2023-04-23T07:18:08;56306.25;;;-142.13;63.39
11712;BME280;5912;51.034;6.984;2023-04-23T07:20:34;56308.25;;;-142.13;62.61
11712;BME280;5912;51.034;6.984;2023-04-23T07:22:59;56314.25;;;-142.13;62.35
11712;BME280;5912;51.034;6.984;2023-04-23T07:25:25;56294.22;;;-142.13;61.55
11712;BME280;5912;51.034;6.984;2023-04-23T07:27:51;56248.16;;;-142.13;60.16
11712;BME280;5912;51.034;6.984;2023-04-23T07:30:18;56292.22;;;-142.13;58.52
11712;BME280;5912;51.034;6.984;2023-04-23T07:32:44;56248.16;;;-142.13;57.24
11712;BME280;5912;51.034;6.984;2023-04-23T07:35:10;56252.16;;;-142.13;56.72
11712;BME280;5912;51.034;6.984;2023-04-23T07:37:36;56246.16;;;-142.13;56.06
11712;BME280;5912;51.034;6.984;2023-04-23T07:40:02;56262.19;;;-142.13;55.08
11712;BME280;5912;51.034;6.984;2023-04-23T07:42:29;56240.16;;;-142.13;53.61
11712;BME280;5912;51.034;6.984;2023-04-23T07:44:54;56218.09;;;-142.13;52.87
11712;BME280;5912;51.034;6.984;2023-04-23T07:47:20;56212.09;;;-142.13;51.64
11712;BME280;5912;51.034;6.984;2023-04-23T07:49:45;56236.13;;;-142.13;50.24
11712;BME280;5912;51.034;6.984;2023-04-23T07:52:10;56224.13;;;-142.13;49.07
11712;BME280;5912;51.034;6.984;2023-04-23T07:54:36;56240.16;;;-142.13;48.57
11712;BME280;5912;51.034;6.984;2023-04-23T07:57:01;56304.25;;;-142.13;47.46
11712;BME280;5912;51.034;6.984;2023-04-23T07:59:28;56202.09;;;-142.13;48.71
11712;BME280;5912;51.034;6.984;2023-04-23T08:01:53;56226.13;;;-142.13;48.09
11712;BME280;5912;51.034;6.984;2023-04-23T08:04:19;56192.06;;;-142.13;45.74
11712;BME280;5912;51.034;6.984;2023-04-23T08:06:44;56164.03;;;-142.13;44.65
11712;BME280;5912;51.034;6.984;2023-04-23T08:09:10;56150.00;;;-142.13;42.90
11712;BME280;5912;51.034;6.984;2023-04-23T08:11:35;56129.97;;;-142.13;41.86
11712;BME280;5912;51.034;6.984;2023-04-23T08:14:00;56172.03;;;-142.13;41.18
11712;BME280;5912;51.034;6.984;2023-04-23T08:16:26;56182.06;;;-142.13;42.45
11712;BME280;5912;51.034;6.984;2023-04-23T08:18:52;56188.06;;;-142.13;43.21
11712;BME280;5912;51.034;6.984;2023-04-23T08:21:17;56162.03;;;-142.13;44.47
11712;BME280;5912;51.034;6.984;2023-04-23T08:23:43;56198.06;;;-142.13;44.38
11712;BME280;5912;51.034;6.984;2023-04-23T08:26:08;56222.13;;;-142.13;43.73
11712;BME280;5912;51.034;6.984;2023-04-23T08:28:34;56216.09;;;-142.13;44.25
11712;BME280;5912;51.034;6.984;2023-04-23T08:30:59;56200.09;;;-142.13;44.33
11712;BME280;5912;51.034;6.984;2023-04-23T08:33:25;56204.09;;;-142.13;43.47
11712;BME280;5912;51.034;6.984;2023-04-23T08:35:50;56174.03;;;-142.13;42.83
11712;BME280;5912;51.034;6.984;2023-04-23T08:38:15;56164.03;;;-142.13;41.17
11712;BME280;5912;51.034;6.984;2023-04-23T08:40:41;56105.94;;;-142.13;41.49
11712;BME280;5912;51.034;6.984;2023-04-23T08:43:14;56097.94;;;-142.13;40.35
11712;BME280;5912;51.034;6.984;2023-04-23T08:45:45;56039.84;;;-142.13;37.31
11712;BME280;5912;51.034;6.984;2023-04-23T08:48:10;56069.88;;;-142.13;36.11
11712;BME280;5912;51.034;6.984;2023-04-23T08:50:36;56047.84;;;-142.13;36.37
11712;BME280;5912;51.034;6.984;2023-04-23T08:53:03;56053.84;;;-142.13;35.28
11712;BME280;5912;51.034;6.984;2023-04-23T08:55:32;56033.81;;;-142.13;35.71
11712;BME280;5912;51.034;6.984;2023-04-23T08:57:58;56043.84;;;-142.13;35.57
11712;BME280;5912;51.034;6.984;2023-04-23T09:00:24;56019.81;;;-142.13;34.87
11712;BME280;5912;51.034;6.984;2023-04-23T09:02:50;55987.75;;;-142.13;34.49
11712;BME280;5912;51.034;6.984;2023-04-23T09:05:15;55999.78;;;-142.13;33.43
11712;BME280;5912;51.034;6.984;2023-04-23T09:07:41;55999.78;;;-142.13;34.16
11712;BME280;5912;51.034;6.984;2023-04-23T09:10:09;56021.81;;;-142.13;33.67
11712;BME280;5912;51.034;6.984;2023-04-23T09:12:37;55995.78;;;-142.13;34.45
11712;BME280;5912;51.034;6.984;2023-04-23T09:15:03;55983.75;;;-142.13;34.27
11712;BME280;5912;51.034;6.984;2023-04-23T09:17:37;56007.78;;;-142.13;34.01
11712;BME280;5912;51.034;6.984;2023-04-23T09:20:03;56031.81;;;-142.13;34.01
11712;BME280;5912;51.034;6.984;2023-04-23T09:25:09;56003.78;;;-142.13;33.99
11712;BME280;5912;51.034;6.984;2023-04-23T09:27:35;56009.78;;;-142.13;33.52
11712;BME280;5912;51.034;6.984;2023-04-23T09:30:02;55959.72;;;-142.13;33.31
11712;BME280;5912;51.034;6.984;2023-04-23T09:32:32;55961.72;;;-142.13;32.37
11712;BME280;5912;51.034;6.984;2023-04-23T09:34:58;55971.72;;;-142.13;32.51
11712;BME280;5912;51.034;6.984;2023-04-23T09:37:26;55951.69;;;-142.13;32.65
11712;BME280;5912;51.034;6.984;2023-04-23T09:39:51;55937.69;;;-142.13;32.43
11712;BME280;5912;51.034;6.984;2023-04-23T09:42:22;55967.72;;;-142.13;32.48
11712;BME280;5912;51.034;6.984;2023-04-23T09:44:59;55979.75;;;-142.13;32.42
11712;BME280;5912;51.034;6.984;2023-04-23T09:47:25;55989.75;;;-142.13;32.57
11712;BME280;5912;51.034;6.984;2023-04-23T09:49:50;56005.78;;;-142.13;32.66
11712;BME280;5912;51.034;6.984;2023-04-23T09:52:16;56027.81;;;-142.13;33.50
11712;BME280;5912;51.034;6.984;2023-04-23T09:54:42;56041.84;;;-142.13;34.46
11712;BME280;5912;51.034;6.984;2023-04-23T09:57:10;56047.84;;;-142.13;34.23
11712;BME280;5912;51.034;6.984;2023-04-23T09:59:36;56053.84;;;-142.13;34.08
11712;BME280;5912;51.034;6.984;2023-04-23T10:02:04;56043.84;;;-142.13;33.90
11712;BME280;5912;51.034;6.984;2023-04-23T10:04:30;56019.81;;;-142.13;33.85
11712;BME280;5912;51.034;6.984;2023-04-23T10:07:05;56035.81;;;-142.13;33.80
11712;BME280;5912;51.034;6.984;2023-04-23T10:09:32;55983.75;;;-142.13;33.20
11712;BME280;5912;51.034;6.984;2023-04-23T10:11:59;56007.78;;;-142.13;32.75
11712;BME280;5912;51.034;6.984;2023-04-23T10:14:26;55995.78;;;-142.13;32.07
11712;BME280;5912;51.034;6.984;2023-04-23T10:19:22;56047.84;;;-142.13;32.82
11712;BME280;5912;51.034;6.984;2023-04-23T10:21:51;56172.03;;;-142.13;33.72
11712;BME280;5912;51.034;6.984;2023-04-23T10:24:19;56083.91;;;-142.13;34.59
11712;BME280;5912;51.034;6.984;2023-04-23T10:26:47;56103.94;;;-142.13;35.47
11712;BME280;5912;51.034;6.984;2023-04-23T10:29:14;56119.97;;;-142.13;34.21
11712;BME280;5912;51.034;6.984;2023-04-23T10:31:41;56083.91;;;-142.13;34.40
11712;BME280;5912;51.034;6.984;2023-04-23T10:34:09;56099.94;;;-142.13;33.93
11712;BME280;5912;51.034;6.984;2023-04-23T10:36:36;56113.94;;;-142.13;33.84
11712;BME280;5912;51.034;6.984;2023-04-23T10:39:01;56103.94;;;-142.13;34.01
11712;BME280;5912;51.034;6.984;2023-04-23T10:41:40;56091.91;;;-142.13;33.54
11712;BME280;5912;51.034;6.984;2023-04-23T10:44:05;56103.94;;;-142.13;33.58
11712;BME280;5912;51.034;6.984;2023-04-23T10:46:35;56087.91;;;-142.13;31.97
11712;BME280;5912;51.034;6.984;2023-04-23T10:49:13;56097.94;;;-142.13;32.05
11712;BME280;5912;51.034;6.984;2023-04-23T10:51:39;56095.91;;;-142.13;32.53
11712;BME280;5912;51.034;6.984;2023-04-23T10:54:10;56069.88;;;-142.13;32.25
11712;BME280;5912;51.034;6.984;2023-04-23T10:56:38;56087.91;;;-142.13;33.00
11712;BME280;5912;51.034;6.984;2023-04-23T10:59:06;56131.97;;;-142.13;33.38
11712;BME280;5912;51.034;6.984;2023-04-23T11:01:32;56113.94;;;-142.13;32.57
11712;BME280;5912;51.034;6.984;2023-04-23T11:03:57;56172.03;;;-142.13;33.41
11712;BME280;5912;51.034;6.984;2023-04-23T11:06:49;56140.00;;;-142.13;33.33
11712;BME280;5912;51.034;6.984;2023-04-23T11:11:59;56103.94;;;-142.13;33.40
11712;BME280;5912;51.034;6.984;2023-04-23T11:14:52;56071.88;;;-142.13;32.27
11712;BME280;5912;51.034;6.984;2023-04-23T11:17:22;56075.88;;;-142.13;30.89
11712;BME280;5912;51.034;6.984;2023-04-23T11:22:38;56019.81;;;-142.13;29.88
11712;BME280;5912;51.034;6.984;2023-04-23T11:25:11;56053.84;;;-142.13;30.71
11712;BME280;5912;51.034;6.984;2023-04-23T11:27:41;56041.84;;;-142.13;30.58
11712;BME280;5912;51.034;6.984;2023-04-23T11:32:36;56079.91;;;-142.13;30.45
11712;BME280;5912;51.034;6.984;2023-04-23T11:35:01;56065.88;;;-142.13;30.38
11712;BME280;5912;51.034;6.984;2023-04-23T11:37:29;56085.91;;;-142.13;30.95
11712;BME280;5912;51.034;6.984;2023-04-23T11:39:54;56099.94;;;-142.13;31.17
11712;BME280;5912;51.034;6.984;2023-04-23T11:42:20;56099.94;;;-142.13;30.73
11712;BME280;5912;51.034;6.984;2023-04-23T11:44:46;56109.94;;;-142.13;30.85
11712;BME280;5912;51.034;6.984;2023-04-23T11:47:13;56077.91;;;-142.13;30.94
11712;BME280;5912;51.034;6.984;2023-04-23T11:49:42;56069.88;;;-142.13;31.01
11712;BME280;5912;51.034;6.984;2023-04-23T11:52:08;56025.81;;;-142.13;29.77
11712;BME280;5912;51.034;6.984;2023-04-23T11:54:34;56015.81;;;-142.13;29.44
11712;BME280;5912;51.034;6.984;2023-04-23T11:57:01;56003.78;;;-142.13;29.20
11712;BME280;5912;51.034;6.984;2023-04-23T11:59:28;55989.75;;;-142.13;28.37
11712;BME280;5912;51.034;6.984;2023-04-23T12:01:56;56003.78;;;-142.13;28.95
11712;BME280;5912;51.034;6.984;2023-04-23T12:04:29;56049.84;;;-142.13;29.63
11712;BME280;5912;51.034;6.984;2023-04-23T12:06:56;56065.88;;;-142.13;30.39
11712;BME280;5912;51.034;6.984;2023-04-23T12:09:24;56009.78;;;-142.13;30.70
11712;BME280;5912;51.034;6.984;2023-04-23T12:11:50;56003.78;;;-142.13;30.02
11712;BME280;5912;51.034;6.984;2023-04-23T12:14:17;55983.75;;;-142.13;29.42
11712;BME280;5912;51.034;6.984;2023-04-23T12:16:45;55933.69;;;-142.13;28.57
11712;BME280;5912;51.034;6.984;2023-04-23T12:19:28;55911.66;;;-142.13;27.91
11712;BME280;5912;51.034;6.984;2023-04-23T12:21:58;55903.63;;;-142.13;27.07
11712;BME280;5912;51.034;6.984;2023-04-23T12:24:44;55935.69;;;-142.13;27.45
11712;BME280;5912;51.034;6.984;2023-04-23T12:27:13;55979.75;;;-142.13;28.24
11712;BME280;5912;51.034;6.984;2023-04-23T12:29:39;55991.75;;;-142.13;28.68
11712;BME280;5912;51.034;6.984;2023-04-23T12:32:09;56027.81;;;-142.13;29.49
11712;BME280;5912;51.034;6.984;2023-04-23T12:34:35;56031.81;;;-142.13;28.29
11712;BME280;5912;51.034;6.984;2023-04-23T12:37:05;56007.78;;;-142.13;28.70
11712;BME280;5912;51.034;6.984;2023-04-23T12:39:32;55983.75;;;-142.13;28.71
11712;BME280;5912;51.034;6.984;2023-04-23T12:42:03;55941.69;;;-142.13;28.52
11712;BME280;5912;51.034;6.984;2023-04-23T12:44:33;55945.69;;;-142.13;27.31
11712;BME280;5912;51.034;6.984;2023-04-23T12:47:09;55931.66;;;-142.13;26.73
11712;BME280;5912;51.034;6.984;2023-04-23T12:49:40;55983.75;;;-142.13;26.75
11712;BME280;5912;51.034;6.984;2023-04-23T12:52:06;55999.78;;;-142.13;28.10
11712;BME280;5912;51.034;6.984;2023-04-23T12:54:35;55997.78;;;-142.13;28.11
11712;BME280;5912;51.034;6.984;2023-04-23T12:57:05;55959.72;;;-142.13;27.80
11712;BME280;5912;51.034;6.984;2023-04-23T12:59:31;56001.78;;;-142.13;28.04